Time;durP1;ratioP1;P1;durP2;ratioP2;P2;SDS_P1;SDS_P2;PMS_P1;PMS_P2;Temp;Humidity;BMP_temperature;BMP_pressure;BME280_temperature;BME280_humidity;BME280_pressure;Samples;Min_cycle;Max_cycle;Signal;HPM_P1;HPM_P2
2021/05/24 00:01:11;;;;;;;3.78;1.23;;;;;;;8.72;100.00;97945.84;5050027;28;20111;-80
2021/05/24 00:03:37;;;;;;;4.65;1.23;;;;;;;8.58;100.00;97942.28;5033936;28;20072;-81
2021/05/24 00:06:04;;;;;;;5.28;1.70;;;;;;;8.40;100.00;97941.19;5036380;28;20472;-81
2021/05/24 00:08:31;;;;;;;4.82;1.52;;;;;;;8.32;100.00;97947.25;5063700;28;20049;-83
2021/05/24 00:10:58;;;;;;;5.72;1.88;;;;;;;8.17;100.00;97950.13;5040352;28;20066;-82
2021/05/24 00:13:24;;;;;;;3.10;1.77;;;;;;;8.12;100.00;97942.94;5055006;28;20064;-82
2021/05/24 00:15:56;;;;;;;6.68;1.90;;;;;;;8.04;100.00;97945.47;5055565;28;20041;-82
2021/05/24 00:18:24;;;;;;;4.47;1.88;;;;;;;7.98;100.00;97942.03;5039318;28;20655;-84
2021/05/24 00:20:55;;;;;;;2.67;1.50;;;;;;;8.00;100.00;97939.06;5040160;28;20421;-84
2021/05/24 00:23:24;;;;;;;4.75;1.60;;;;;;;7.92;100.00;97934.31;5055993;28;20056;-85
2021/05/24 00:25:51;;;;;;;4.63;1.88;;;;;;;7.89;100.00;97932.19;5054941;28;20044;-82
2021/05/24 00:28:19;;;;;;;3.95;1.77;;;;;;;7.87;100.00;97937.09;5056193;28;20573;-83
2021/05/24 00:30:49;;;;;;;5.18;2.03;;;;;;;7.78;100.00;97926.13;5039445;28;20044;-82
2021/05/24 00:33:17;;;;;;;4.57;1.92;;;;;;;7.71;100.00;97924.88;5054793;28;20045;-84
2021/05/24 00:35:45;;;;;;;6.13;2.00;;;;;;;7.63;100.00;97928.22;5056082;28;20080;-83
2021/05/24 00:38:12;;;;;;;7.10;2.33;;;;;;;7.60;100.00;97926.09;5055500;28;20512;-84
2021/05/24 00:40:39;;;;;;;2.38;1.80;;;;;;;7.53;100.00;97939.94;5056783;28;20044;-81
2021/05/24 00:43:07;;;;;;;4.55;2.20;;;;;;;7.45;100.00;97929.78;5057025;28;20048;-83
2021/05/24 00:45:35;;;;;;;4.78;2.15;;;;;;;7.48;100.00;97927.31;5055608;28;20048;-84
2021/05/24 00:48:03;;;;;;;7.72;1.85;;;;;;;7.40;100.00;97917.19;5039462;28;20084;-82
2021/05/24 00:50:32;;;;;;;7.85;2.20;;;;;;;7.37;100.00;97922.34;5056931;28;20052;-84
2021/05/24 00:53:01;;;;;;;4.53;1.92;;;;;;;7.38;100.00;97919.34;5055493;28;20049;-84
2021/05/24 00:55:28;;;;;;;5.03;1.90;;;;;;;7.39;100.00;97928.22;5055907;28;20044;-83
2021/05/24 00:57:55;;;;;;;3.55;1.75;;;;;;;7.34;100.00;97918.31;5055360;28;20060;-85
2021/05/24 01:00:43;;;;;;;3.95;2.00;;;;;;;7.26;100.00;97913.56;5037371;28;20082;-84
2021/05/24 01:03:11;;;;;;;3.50;1.95;;;;;;;7.22;100.00;97925.19;5037383;28;20082;-83
2021/05/24 01:05:39;;;;;;;5.07;1.70;;;;;;;7.21;100.00;97919.00;5055148;28;20082;-83
2021/05/24 01:08:09;;;;;;;3.45;1.90;;;;;;;7.11;100.00;97921.81;5054949;28;20056;-83
2021/05/24 01:10:36;;;;;;;4.07;1.67;;;;;;;7.15;100.00;97922.06;5038745;28;20044;-85
2021/05/24 01:13:05;;;;;;;3.38;1.67;;;;;;;7.16;100.00;97923.66;5038487;28;20048;-82
2021/05/24 01:15:33;;;;;;;2.42;1.58;;;;;;;7.13;100.00;97919.63;5037941;28;20224;-84
2021/05/24 01:18:02;;;;;;;3.00;1.52;;;;;;;7.12;100.00;97917.25;5037077;28;20048;-84
2021/05/24 01:20:33;;;;;;;4.20;1.60;;;;;;;7.12;100.00;97918.03;5040543;28;20147;-85
2021/05/24 01:25:33;;;;;;;6.30;1.50;;;;;;;7.14;100.00;97915.88;5055587;28;20070;-84
2021/05/24 01:28:00;;;;;;;3.22;1.58;;;;;;;7.12;100.00;97912.66;5038788;28;20108;-83
2021/05/24 01:30:26;;;;;;;4.55;1.70;;;;;;;7.14;100.00;97906.97;5053818;28;20048;-83
2021/05/24 01:32:53;;;;;;;2.60;1.50;;;;;;;7.04;100.00;97905.22;5037894;28;20083;-83
2021/05/24 01:35:20;;;;;;;4.15;1.48;;;;;;;6.99;100.00;97907.13;5054318;28;20147;-83
2021/05/24 01:37:47;;;;;;;5.97;1.80;;;;;;;6.98;100.00;97909.03;5034823;28;20139;-84
2021/05/24 01:40:14;;;;;;;4.97;1.70;;;;;;;6.98;100.00;97905.53;5051382;28;20045;-84
2021/05/24 01:42:42;;;;;;;2.95;1.58;;;;;;;6.99;100.00;97894.50;5035222;28;20570;-84
2021/05/24 01:45:12;;;;;;;3.13;1.50;;;;;;;6.95;100.00;97900.72;5033739;28;20049;-84
2021/05/24 01:47:42;;;;;;;2.67;1.67;;;;;;;6.82;100.00;97892.22;5037771;28;20238;-83
2021/05/24 01:50:10;;;;;;;3.53;1.70;;;;;;;6.72;100.00;97880.75;5041816;28;20429;-84
2021/05/24 01:52:37;;;;;;;5.93;1.90;;;;;;;6.77;100.00;97884.22;5022824;28;20106;-84
2021/05/24 01:55:06;;;;;;;7.28;1.75;;;;;;;6.74;100.00;97884.75;5022896;28;20057;-83
2021/05/24 01:57:33;;;;;;;3.75;1.70;;;;;;;6.66;100.00;97879.19;5023287;28;20049;-82
2021/05/24 02:00:06;;;;;;;3.78;1.95;;;;;;;6.64;100.00;97874.09;5061160;23;20146;-81
2021/05/24 02:02:33;;;;;;;4.47;1.83;;;;;;;6.62;100.00;97876.28;5060765;28;20056;-79
2021/05/24 02:05:00;;;;;;;3.17;1.70;;;;;;;6.64;100.00;97868.72;5059808;28;20605;-79
2021/05/24 02:07:30;;;;;;;4.50;1.88;;;;;;;6.60;100.00;97866.91;5061601;28;20139;-79
2021/05/24 02:09:57;;;;;;;6.63;2.13;;;;;;;6.61;100.00;97873.84;5061729;28;20047;-79
2021/05/24 02:12:24;;;;;;;2.40;1.63;;;;;;;6.56;100.00;97863.97;5063138;28;20147;-79
2021/05/24 02:14:52;;;;;;;4.20;1.73;;;;;;;6.54;100.00;97857.25;5059545;28;20056;-79
2021/05/24 02:17:19;;;;;;;3.50;1.77;;;;;;;6.53;100.00;97866.44;5062491;28;20746;-79
2021/05/24 02:19:48;;;;;;;3.95;1.77;;;;;;;6.52;100.00;97856.75;5061434;28;20051;-80
2021/05/24 02:22:16;;;;;;;3.55;1.88;;;;;;;6.46;100.00;97855.19;5063137;28;20116;-80
2021/05/24 02:24:43;;;;;;;4.07;2.13;;;;;;;6.42;100.00;97852.28;5062683;28;20063;-79
2021/05/24 02:27:10;;;;;;;5.50;2.10;;;;;;;6.33;100.00;97850.44;5063846;28;20151;-79
2021/05/24 02:29:37;;;;;;;3.95;2.22;;;;;;;6.30;100.00;97848.34;5065112;28;20040;-79
2021/05/24 02:32:04;;;;;;;4.00;2.05;;;;;;;6.31;100.00;97853.44;5069147;28;20247;-80
2021/05/24 02:34:31;;;;;;;6.20;2.03;;;;;;;6.24;100.00;97861.84;5069162;28;20043;-79
2021/05/24 02:36:58;;;;;;;5.50;2.15;;;;;;;6.22;100.00;97849.72;5068632;28;20516;-80
2021/05/24 02:39:25;;;;;;;7.10;2.42;;;;;;;6.21;100.00;97867.75;5061974;28;20047;-80
2021/05/24 02:41:52;;;;;;;6.80;2.05;;;;;;;6.15;100.00;97870.75;5060134;28;20048;-80
2021/05/24 02:44:19;;;;;;;5.60;2.40;;;;;;;6.20;100.00;97870.72;5059851;28;20142;-79
2021/05/24 02:46:49;;;;;;;3.28;1.90;;;;;;;6.16;100.00;97870.50;5078373;28;20048;-79
2021/05/24 02:49:16;;;;;;;4.28;2.08;;;;;;;6.16;100.00;97875.06;5060272;28;20040;-80
2021/05/24 02:51:43;;;;;;;6.50;2.40;;;;;;;6.11;100.00;97869.72;5060455;28;20048;-79
2021/05/24 02:54:10;;;;;;;6.55;2.40;;;;;;;6.14;100.00;97879.91;5062333;28;20460;-80
2021/05/24 02:56:37;;;;;;;3.90;1.92;;;;;;;6.13;100.00;97879.13;5062129;28;20139;-79
2021/05/24 02:59:05;;;;;;;4.30;2.15;;;;;;;6.10;100.00;97874.28;5060296;28;20051;-80
2021/05/24 03:01:32;;;;;;;7.25;2.25;;;;;;;6.05;100.00;97870.84;5059518;28;20052;-79
2021/05/24 03:04:01;;;;;;;5.40;2.60;;;;;;;6.07;100.00;97869.47;5062623;28;20051;-80
2021/05/24 03:06:28;;;;;;;5.05;2.50;;;;;;;6.04;100.00;97864.66;5079933;28;20077;-79
2021/05/24 03:08:55;;;;;;;6.40;2.58;;;;;;;6.05;100.00;97865.47;5061981;28;20044;-80
2021/05/24 03:11:22;;;;;;;6.03;2.20;;;;;;;6.03;100.00;97852.31;5064373;28;20059;-80
2021/05/24 03:13:50;;;;;;;4.05;2.28;;;;;;;6.05;100.00;97857.41;5079555;28;20506;-79
2021/05/24 03:16:18;;;;;;;4.70;2.13;;;;;;;6.05;100.00;97849.34;5064131;28;20480;-80
2021/05/24 03:18:45;;;;;;;7.38;2.40;;;;;;;6.03;100.00;97849.63;5062525;28;20044;-80
2021/05/24 03:21:12;;;;;;;5.18;2.00;;;;;;;5.98;100.00;97851.53;5062739;28;20056;-80
2021/05/24 03:23:39;;;;;;;5.45;2.47;;;;;;;5.95;100.00;97855.59;5062774;28;20056;-80
2021/05/24 03:26:06;;;;;;;5.28;2.25;;;;;;;5.94;100.00;97842.41;5060225;28;20054;-79
2021/05/24 03:28:32;;;;;;;4.85;2.10;;;;;;;5.93;100.00;97851.59;5059000;28;20055;-79
2021/05/24 03:30:59;;;;;;;7.18;2.13;;;;;;;5.95;100.00;97854.78;5060454;28;20069;-79
2021/05/24 03:33:26;;;;;;;3.22;1.70;;;;;;;5.95;100.00;97855.59;5076818;28;20065;-79
2021/05/24 03:35:53;;;;;;;7.30;2.20;;;;;;;6.00;100.00;97849.38;5062006;28;20052;-79
2021/05/24 03:38:20;;;;;;;7.43;2.00;;;;;;;5.92;100.00;97845.41;5059611;28;20213;-79
2021/05/24 03:40:47;;;;;;;4.15;1.77;;;;;;;5.97;100.00;97841.88;5060797;28;20113;-79
2021/05/24 03:43:13;;;;;;;6.07;2.30;;;;;;;6.03;100.00;97844.25;5059755;28;20055;-79
2021/05/24 03:45:41;;;;;;;5.55;2.00;;;;;;;6.07;100.00;97833.72;5061084;28;20050;-79
2021/05/24 03:48:08;;;;;;;6.70;2.78;;;;;;;6.04;100.00;97831.63;5095764;28;20043;-78
2021/05/24 03:50:35;;;;;;;4.05;2.10;;;;;;;6.06;100.00;97824.88;5059341;28;20097;-78
2021/05/24 03:53:02;;;;;;;5.03;1.95;;;;;;;6.16;100.00;97830.19;5056787;28;20135;-78
2021/05/24 03:55:29;;;;;;;3.05;1.90;;;;;;;6.24;100.00;97823.38;5059193;28;20496;-78
2021/05/24 03:57:55;;;;;;;5.80;2.00;;;;;;;6.32;100.00;97828.16;5059290;28;20048;-78
2021/05/24 04:00:22;;;;;;;7.13;2.10;;;;;;;6.31;100.00;97831.94;5059679;28;20070;-78
2021/05/24 04:02:50;;;;;;;3.85;1.77;;;;;;;6.35;100.00;97821.41;5060371;28;20051;-79
2021/05/24 04:07:53;;;;;;;5.95;1.95;;;;;;;6.36;100.00;97829.19;5077567;28;20123;-79
2021/05/24 04:10:24;;;;;;;3.53;1.90;;;;;;;6.51;100.00;97830.94;5059639;28;20040;-78
2021/05/24 04:12:57;;;;;;;5.97;2.10;;;;;;;6.57;100.00;97838.69;5060171;28;20044;-80
2021/05/24 04:15:26;;;;;;;4.40;1.73;;;;;;;6.59;100.00;97839.19;5076701;28;20039;-80
2021/05/24 04:18:01;;;;;;;4.10;1.88;;;;;;;6.66;100.00;97839.66;5060554;28;20048;-79
2021/05/24 04:20:30;;;;;;;5.50;1.92;;;;;;;6.73;100.00;97823.19;5067939;28;20340;-78
2021/05/24 04:22:58;;;;;;;5.43;2.05;;;;;;;6.75;100.00;97829.06;5076117;28;20048;-79
2021/05/24 04:25:24;;;;;;;4.78;1.80;;;;;;;6.85;100.00;97827.09;5093931;28;20066;-78
2021/05/24 04:27:51;;;;;;;9.55;2.10;;;;;;;6.88;100.00;97823.81;5058515;28;20081;-78
2021/05/24 04:30:20;;;;;;;6.03;2.03;;;;;;;6.98;100.00;97832.84;5056294;28;20054;-78
2021/05/24 04:32:46;;;;;;;3.92;1.88;;;;;;;7.08;100.00;97832.75;5057217;28;20115;-79
2021/05/24 04:35:14;;;;;;;3.47;1.77;;;;;;;7.18;100.00;97829.91;5058271;28;20094;-79
2021/05/24 04:37:42;;;;;;;3.28;1.60;;;;;;;7.30;100.00;97836.50;5058954;28;20048;-79
2021/05/24 04:40:09;;;;;;;2.42;1.50;;;;;;;7.46;100.00;97840.59;5058345;28;20093;-78
2021/05/24 04:42:36;;;;;;;5.88;1.70;;;;;;;7.60;100.00;97831.81;5058708;28;20047;-79
2021/05/24 04:45:04;;;;;;;4.63;1.60;;;;;;;7.77;100.00;97840.22;5057014;28;20059;-78
2021/05/24 04:47:32;;;;;;;3.88;1.70;;;;;;;7.97;100.00;97832.63;5059431;28;20048;-79
2021/05/24 04:50:02;;;;;;;4.03;1.65;;;;;;;8.14;100.00;97846.38;5042170;28;20138;-79
2021/05/24 04:52:29;;;;;;;5.35;1.48;;;;;;;8.35;100.00;97828.00;5056890;28;20076;-78
2021/05/24 04:54:59;;;;;;;4.50;1.27;;;;;;;8.51;100.00;97820.44;5059034;28;20048;-80
2021/05/24 04:57:26;;;;;;;3.17;1.20;;;;;;;8.62;100.00;97819.94;5058927;28;20169;-79
2021/05/24 04:59:54;;;;;;;2.15;1.25;;;;;;;8.73;100.00;97812.47;5056699;28;20097;-79
2021/05/24 05:02:21;;;;;;;4.57;1.20;;;;;;;8.91;100.00;97819.69;5057475;28;20578;-80
2021/05/24 05:04:48;;;;;;;4.00;1.38;;;;;;;9.09;100.00;97824.19;5057770;28;20440;-79
2021/05/24 05:07:15;;;;;;;5.07;1.20;;;;;;;9.26;100.00;97824.41;5058042;28;20158;-79
2021/05/24 05:09:42;;;;;;;3.95;1.50;;;;;;;9.47;100.00;97816.66;5057270;28;20070;-79
2021/05/24 05:12:09;;;;;;;2.50;1.23;;;;;;;9.64;100.00;97803.31;5073828;28;20044;-80
2021/05/24 05:14:36;;;;;;;2.92;1.08;;;;;;;9.74;100.00;97808.47;5055882;28;20512;-80
2021/05/24 05:17:07;;;;;;;3.63;1.10;;;;;;;9.85;100.00;97807.16;5061423;28;20043;-80
2021/05/24 05:19:33;;;;;;;10.48;1.23;;;;;;;9.92;100.00;97817.53;5060163;28;20055;-79
2021/05/24 05:22:00;;;;;;;5.30;1.15;;;;;;;9.99;100.00;97816.00;5059614;28;20052;-80
2021/05/24 05:24:27;;;;;;;3.45;1.00;;;;;;;10.12;100.00;97817.09;5047117;28;20139;-80
2021/05/24 05:26:54;;;;;;;3.60;1.30;;;;;;;10.15;100.00;97816.47;5052273;28;20519;-80
2021/05/24 05:29:20;;;;;;;4.80;1.35;;;;;;;10.19;100.00;97819.38;5056207;28;20199;-79
2021/05/24 05:31:47;;;;;;;3.45;1.30;;;;;;;10.07;100.00;97811.75;5059962;28;20055;-79
2021/05/24 05:34:14;;;;;;;2.80;1.30;;;;;;;10.16;100.00;97823.50;5060004;28;20048;-79
2021/05/24 05:36:41;;;;;;;4.07;1.52;;;;;;;10.25;100.00;97815.41;5065949;28;20078;-78
2021/05/24 05:39:08;;;;;;;3.83;1.30;;;;;;;10.39;100.00;97819.69;5066704;28;20068;-79
2021/05/24 05:41:35;;;;;;;5.05;1.40;;;;;;;10.55;100.00;97823.59;5070959;28;20056;-80
2021/05/24 05:44:03;;;;;;;3.50;1.00;;;;;;;10.69;100.00;97826.19;5064713;28;20068;-79
2021/05/24 05:46:31;;;;;;;2.22;0.98;;;;;;;11.04;100.00;97835.31;5059945;28;20055;-79
2021/05/24 05:48:58;;;;;;;6.00;1.00;;;;;;;11.33;100.00;97832.84;5059832;28;20240;-79
2021/05/24 05:51:25;;;;;;;4.07;1.10;;;;;;;11.62;100.00;97834.97;5062511;28;20055;-83
2021/05/24 05:53:53;;;;;;;3.95;1.33;;;;;;;11.89;100.00;97832.03;5063650;28;20063;-80
2021/05/24 05:56:20;;;;;;;3.10;1.00;;;;;;;12.09;100.00;97830.59;5063073;28;20044;-82
2021/05/24 05:58:49;;;;;;;3.17;0.95;;;;;;;12.26;100.00;97822.47;5052041;28;20044;-81
2021/05/24 06:01:17;;;;;;;2.33;0.90;;;;;;;12.39;100.00;97830.41;5048285;28;20101;-81
2021/05/24 06:03:44;;;;;;;3.83;0.98;;;;;;;12.56;100.00;97823.38;5050512;28;20188;-81
2021/05/24 06:06:12;;;;;;;2.20;0.93;;;;;;;12.56;100.00;97818.75;5047927;28;20054;-81
2021/05/24 06:08:42;;;;;;;4.50;1.17;;;;;;;12.71;100.00;97831.00;5054528;28;20052;-83
2021/05/24 06:11:11;;;;;;;3.20;0.95;;;;;;;12.78;100.00;97839.44;5038858;28;20044;-83
2021/05/24 06:13:38;;;;;;;2.10;0.93;;;;;;;12.86;100.00;97841.34;5051748;28;20564;-80
2021/05/24 06:16:05;;;;;;;5.43;0.77;;;;;;;13.05;100.00;97828.97;5062158;28;20420;-81
2021/05/24 06:18:32;;;;;;;4.55;0.90;;;;;;;13.05;100.00;97822.75;5055784;28;20120;-82
2021/05/24 06:20:59;;;;;;;3.13;1.27;;;;;;;13.16;100.00;97820.50;5057416;28;20040;-81
2021/05/24 06:23:26;;;;;;;3.75;1.23;;;;;;;13.35;100.00;97818.94;5056158;28;20048;-82
2021/05/24 06:25:53;;;;;;;3.67;0.93;;;;;;;13.49;100.00;97811.34;5068360;28;20044;-82
2021/05/24 06:28:19;;;;;;;3.90;0.82;;;;;;;13.77;100.00;97811.66;5038313;28;20048;-81
2021/05/24 06:30:48;;;;;;;4.38;0.98;;;;;;;13.71;100.00;97808.31;5038295;28;20287;-82
2021/05/24 06:33:15;;;;;;;4.20;0.90;;;;;;;13.96;100.00;97798.38;5036639;28;20102;-81
2021/05/24 06:35:41;;;;;;;3.28;0.70;;;;;;;14.06;100.00;97787.09;5041462;28;20052;-81
2021/05/24 06:38:09;;;;;;;2.50;0.80;;;;;;;14.10;100.00;97788.00;5043538;28;20072;-84
2021/05/24 06:40:36;;;;;;;3.65;0.95;;;;;;;14.10;100.00;97796.19;5042350;28;20048;-81
2021/05/24 06:43:02;;;;;;;6.75;1.00;;;;;;;13.88;100.00;97782.13;5039897;28;20159;-82
2021/05/24 06:45:29;;;;;;;1.58;0.68;;;;;;;14.00;100.00;97791.13;5042101;28;20053;-81
2021/05/24 06:47:56;;;;;;;2.75;0.70;;;;;;;14.20;100.00;97790.31;5079535;28;20089;-81
2021/05/24 06:50:25;;;;;;;2.00;0.70;;;;;;;14.27;100.00;97793.28;5053599;28;20040;-82
2021/05/24 06:52:52;;;;;;;1.75;0.68;;;;;;;14.67;100.00;97792.78;5060563;28;20125;-82
2021/05/24 06:55:19;;;;;;;2.90;0.70;;;;;;;14.81;100.00;97790.53;5063162;28;20501;-81
2021/05/24 06:57:46;;;;;;;3.42;0.82;;;;;;;14.98;100.00;97782.16;5063675;28;20052;-82
2021/05/24 07:00:14;;;;;;;4.40;0.80;;;;;;;15.15;100.00;97786.59;5061107;28;20048;-82
2021/05/24 07:02:44;;;;;;;1.95;0.60;;;;;;;14.93;100.00;97776.91;5041868;28;20419;-82
2021/05/24 07:05:11;;;;;;;2.05;0.70;;;;;;;14.86;100.00;97791.13;5036123;28;20052;-82
2021/05/24 07:07:38;;;;;;;3.65;0.50;;;;;;;15.23;100.00;97791.94;5042932;28;20079;-81
2021/05/24 07:10:07;;;;;;;1.80;0.50;;;;;;;15.45;100.00;97782.50;5044793;28;20543;-83
2021/05/24 07:12:35;;;;;;;1.73;0.57;;;;;;;15.16;100.00;97778.06;5044770;28;20477;-81
2021/05/24 07:15:03;;;;;;;4.25;0.77;;;;;;;15.19;100.00;97784.78;5041088;28;20318;-81
2021/05/24 07:17:31;;;;;;;1.70;0.60;;;;;;;15.01;100.00;97775.22;5042533;28;20048;-81
2021/05/24 07:19:59;;;;;;;1.55;0.50;;;;;;;15.07;100.00;97771.16;5042698;28;20080;-83
2021/05/24 07:22:28;;;;;;;2.58;0.63;;;;;;;15.13;100.00;97767.03;5055557;28;20566;-82
2021/05/24 07:24:56;;;;;;;3.13;0.50;;;;;;;15.25;100.00;97756.91;5061301;28;20429;-82
2021/05/24 07:27:24;;;;;;;2.00;0.47;;;;;;;15.23;100.00;97761.91;5058353;28;20367;-79
2021/05/24 07:29:50;;;;;;;4.65;0.75;;;;;;;15.33;100.00;97766.16;5053451;28;20059;-78
2021/05/24 07:32:17;;;;;;;7.68;0.70;;;;;;;15.40;100.00;97761.69;5052375;28;20144;-78
2021/05/24 07:34:44;;;;;;;1.63;0.60;;;;;;;15.47;100.00;97761.94;5052683;28;20044;-80
2021/05/24 07:37:11;;;;;;;5.18;0.68;;;;;;;15.42;100.00;97753.97;5041356;28;20468;-83
2021/05/24 07:39:37;;;;;;;1.40;0.68;;;;;;;15.79;100.00;97754.72;5036924;28;20171;-81
2021/05/24 07:42:10;;;;;;;1.77;0.60;;;;;;;15.78;100.00;97735.94;5042558;28;20049;-81
2021/05/24 07:44:37;;;;;;;2.58;0.75;;;;;;;15.85;100.00;97731.47;5056888;28;20036;-81
2021/05/24 07:47:04;;;;;;;1.15;0.65;;;;;;;15.62;100.00;97727.69;5056896;28;20124;-80
2021/05/24 07:49:31;;;;;;;1.98;0.63;;;;;;;15.61;100.00;97734.28;5058120;28;20523;-81
2021/05/24 07:51:58;;;;;;;2.38;0.80;;;;;;;15.82;100.00;97720.47;5067226;28;20051;-81
2021/05/24 07:54:25;;;;;;;3.10;0.80;;;;;;;16.06;100.00;97712.97;5078307;28;20476;-81
2021/05/24 07:56:52;;;;;;;3.05;0.85;;;;;;;15.97;100.00;97720.53;5062107;28;20040;-80
2021/05/24 08:01:53;;;;;;;4.13;0.65;;;;;;;15.70;100.00;97720.50;5022996;28;20100;-75
2021/05/24 08:04:19;;;;;;;4.70;0.70;;;;;;;15.92;100.00;97722.72;5012348;28;20046;-77
2021/05/24 08:06:46;;;;;;;4.00;0.75;;;;;;;16.05;100.00;97716.06;5031033;28;20488;-75
2021/05/24 08:09:12;;;;;;;2.20;0.82;;;;;;;16.13;100.00;97718.63;5035652;28;20060;-75
2021/05/24 08:11:39;;;;;;;3.00;0.70;;;;;;;16.01;100.00;97726.06;5047322;28;20040;-75
2021/05/24 08:14:06;;;;;;;3.13;0.60;;;;;;;16.27;100.00;97712.75;5061156;23;20110;-80
2021/05/24 08:16:33;;;;;;;3.30;0.70;;;;;;;16.43;95.19;97710.06;5043340;28;20057;-80
2021/05/24 08:19:00;;;;;;;2.33;0.63;;;;;;;16.41;100.00;97704.16;5042045;28;20465;-81
2021/05/24 08:21:30;;;;;;;1.88;0.80;;;;;;;16.70;94.21;97709.22;5071278;28;20549;-81
2021/05/24 08:23:57;;;;;;;3.30;0.80;;;;;;;16.97;94.64;97686.44;5038712;28;20043;-81
2021/05/24 08:26:24;;;;;;;3.78;0.90;;;;;;;17.11;97.25;97696.94;5043147;28;20258;-80
2021/05/24 08:28:51;;;;;;;3.58;0.85;;;;;;;16.83;88.86;97685.34;5036426;28;20052;-79
2021/05/24 08:31:20;;;;;;;2.38;0.77;;;;;;;17.14;91.44;97693.47;5053783;28;20116;-80
2021/05/24 08:33:46;;;;;;;2.08;0.70;;;;;;;17.27;91.98;97687.53;5078681;28;20043;-80
2021/05/24 08:36:13;;;;;;;1.20;0.70;;;;;;;17.43;78.19;97687.50;5060830;28;20055;-78
2021/05/24 08:38:40;;;;;;;2.05;0.63;;;;;;;17.59;75.59;97676.53;5060455;28;20054;-80
2021/05/24 08:41:09;;;;;;;5.70;0.80;;;;;;;17.70;78.38;97674.81;5080836;28;20516;-80
2021/05/24 08:43:37;;;;;;;2.28;0.57;;;;;;;18.07;70.28;97673.19;5060813;28;20087;-81
2021/05/24 08:46:05;;;;;;;1.38;0.50;;;;;;;17.77;67.22;97672.19;5060213;28;20110;-79
2021/05/24 08:48:33;;;;;;;2.90;0.80;;;;;;;17.51;68.26;97666.53;5054261;28;20048;-79
2021/05/24 08:51:02;;;;;;;2.45;0.60;;;;;;;17.76;70.24;97671.41;5040092;28;20044;-80
2021/05/24 08:53:29;;;;;;;1.75;0.57;;;;;;;17.66;68.93;97666.50;5081757;28;20112;-81
2021/05/24 08:55:56;;;;;;;1.65;0.70;;;;;;;17.34;73.70;97668.53;5099270;28;20059;-79
2021/05/24 08:58:23;;;;;;;1.10;0.60;;;;;;;17.18;68.78;97651.38;5083604;28;20500;-82
2021/05/24 09:00:51;;;;;;;2.38;0.60;;;;;;;17.38;69.38;97643.97;5086405;28;20047;-78
2021/05/24 09:03:21;;;;;;;2.60;0.60;;;;;;;17.39;71.37;97651.81;5077195;28;20533;-81
2021/05/24 09:05:49;;;;;;;1.80;0.70;;;;;;;17.43;72.02;97639.03;5094871;28;20315;-80
2021/05/24 09:08:16;;;;;;;1.70;0.70;;;;;;;17.53;69.93;97634.16;5077711;28;20242;-81
2021/05/24 09:10:45;;;;;;;1.48;0.60;;;;;;;17.78;64.75;97632.72;5078704;28;20444;-79
2021/05/24 09:13:19;;;;;;;3.03;0.80;;;;;;;17.82;65.24;97628.91;5113313;28;20114;-79
2021/05/24 09:15:47;;;;;;;1.85;0.63;;;;;;;17.40;65.66;97630.72;5076707;28;20047;-80
2021/05/24 09:18:19;;;;;;;1.88;0.68;;;;;;;17.49;68.86;97625.84;5077391;28;20537;-80
2021/05/24 09:20:51;;;;;;;3.30;0.63;;;;;;;17.74;61.24;97623.63;5095402;28;20040;-81
2021/05/24 09:23:21;;;;;;;1.98;0.70;;;;;;;18.16;60.34;97613.47;5095587;28;20051;-81
2021/05/24 09:25:57;;;;;;;6.97;0.68;;;;;;;18.56;54.59;97615.75;5077193;28;20051;-81
2021/05/24 09:28:41;;;;;;;4.60;0.47;;;;;;;19.11;54.54;97612.28;5075880;28;20488;-80
2021/05/24 09:31:25;;;;;;;4.13;0.52;;;;;;;19.27;52.33;97610.16;5076861;28;20452;-81
2021/05/24 09:34:05;;;;;;;1.67;0.60;;;;;;;19.47;51.08;97602.59;5073587;28;20086;-81
2021/05/24 09:36:37;;;;;;;1.38;0.50;;;;;;;19.47;50.03;97591.63;5066464;28;20080;-80
2021/05/24 09:39:11;;;;;;;5.82;0.90;;;;;;;20.38;50.46;97600.06;5061320;28;20052;-80
2021/05/24 09:41:45;;;;;;;4.35;0.65;;;;;;;20.60;47.12;97597.47;5065290;28;20040;-79
2021/05/24 09:44:20;;;;;;;1.55;0.60;;;;;;;20.68;44.94;97580.66;5047999;28;20516;-80
2021/05/24 09:46:48;;;;;;;3.53;0.60;;;;;;;21.95;44.58;97584.09;5058552;28;20044;-81
2021/05/24 09:49:21;;;;;;;1.63;0.50;;;;;;;23.02;43.08;97571.13;5046066;28;20490;-80
2021/05/24 09:51:48;;;;;;;1.83;0.50;;;;;;;23.37;38.67;97563.56;5069231;28;20541;-81
2021/05/24 09:54:15;;;;;;;1.30;0.60;;;;;;;23.17;41.00;97547.81;5045247;28;20248;-81
2021/05/24 09:56:49;;;;;;;5.80;0.60;;;;;;;23.47;39.91;97543.38;5043774;28;20044;-81
2021/05/24 09:59:40;;;;;;;1.20;0.50;;;;;;;24.17;36.96;97552.50;5058789;28;20162;-81
2021/05/24 10:02:31;;;;;;;3.90;0.80;;;;;;;24.07;38.89;97543.06;5068001;28;20043;-82
2021/05/24 10:05:00;;;;;;;1.30;0.50;;;;;;;24.37;37.33;97538.91;5068554;28;20041;-80
2021/05/24 10:07:27;;;;;;;3.10;0.65;;;;;;;25.00;34.93;97541.13;5069187;28;20420;-81
2021/05/24 10:09:54;;;;;;;1.27;0.60;;;;;;;25.36;35.24;97533.19;5054151;28;20098;-81
2021/05/24 10:12:22;;;;;;;2.38;0.60;;;;;;;25.87;35.13;97521.81;5073723;28;20048;-79
2021/05/24 10:14:48;;;;;;;3.85;0.90;;;;;;;26.15;34.76;97525.41;5071324;28;20529;-80
2021/05/24 10:17:16;;;;;;;4.22;0.68;;;;;;;25.67;33.46;97517.38;5061157;28;20576;-81
2021/05/24 10:19:43;;;;;;;1.17;0.60;;;;;;;25.31;30.11;97512.25;5072891;28;20501;-81
2021/05/24 10:22:10;;;;;;;1.42;0.55;;;;;;;26.63;29.82;97495.28;5088962;28;20085;-81
2021/05/24 10:24:37;;;;;;;1.00;0.40;;;;;;;26.07;30.73;97483.06;5049145;28;20524;-81
2021/05/24 10:27:04;;;;;;;1.42;0.77;;;;;;;25.40;30.45;97484.00;5087008;28;20071;-81
2021/05/24 10:29:34;;;;;;;1.55;0.60;;;;;;;26.00;30.76;97494.28;5072193;28;20465;-82
2021/05/24 10:32:01;;;;;;;0.77;0.50;;;;;;;25.89;29.74;97486.13;5049680;28;20078;-82
2021/05/24 10:34:36;;;;;;;1.02;0.50;;;;;;;24.94;32.88;97476.28;5041751;28;20055;-82
2021/05/24 10:37:12;;;;;;;1.63;0.57;;;;;;;25.20;30.35;97469.22;5057068;28;20042;-80
2021/05/24 10:40:02;;;;;;;1.02;0.50;;;;;;;25.20;31.36;97447.06;5058976;28;20058;-82
2021/05/24 10:42:44;;;;;;;1.58;0.50;;;;;;;26.06;31.02;97448.22;5070271;28;20055;-79
2021/05/24 10:45:24;;;;;;;3.65;0.60;;;;;;;25.08;31.99;97445.66;5073668;28;20079;-82
2021/05/24 10:47:55;;;;;;;1.15;0.50;;;;;;;25.57;30.99;97452.53;5067249;28;20044;-80
2021/05/24 10:50:25;;;;;;;1.27;0.60;;;;;;;24.84;31.47;97443.16;5065083;28;20495;-80
2021/05/24 10:53:21;;;;;;;1.15;0.60;;;;;;;25.20;31.17;97428.47;5064506;28;20123;-79
2021/05/24 10:55:50;;;;;;;1.10;0.50;;;;;;;25.38;30.39;97431.78;5066140;28;20044;-81
2021/05/24 10:58:21;;;;;;;1.83;0.60;;;;;;;26.50;29.32;97428.44;5074062;28;20044;-82
2021/05/24 11:01:04;;;;;;;1.00;0.50;;;;;;;26.41;27.13;97422.66;5069458;28;20051;-82
2021/05/24 11:03:32;;;;;;;0.95;0.52;;;;;;;27.05;26.90;97416.66;5068860;28;20074;-80
2021/05/24 11:06:11;;;;;;;0.60;0.55;;;;;;;26.39;27.52;97418.75;5085059;28;20070;-79
2021/05/24 11:08:41;;;;;;;1.05;0.50;;;;;;;26.60;27.79;97430.25;5084886;28;20078;-79
2021/05/24 11:11:29;;;;;;;0.80;0.40;;;;;;;25.97;29.26;97421.00;5067160;28;20048;-81
2021/05/24 11:14:00;;;;;;;3.03;0.60;;;;;;;26.24;27.39;97423.75;5085012;28;20066;-80
2021/05/24 11:16:28;;;;;;;1.05;0.65;;;;;;;25.73;28.14;97424.94;5067155;28;20084;-80
2021/05/24 11:19:14;;;;;;;2.00;0.80;;;;;;;26.38;29.27;97425.47;5084382;28;20058;-80
2021/05/24 11:22:01;;;;;;;2.72;0.70;;;;;;;25.97;28.47;97418.22;5070317;28;20074;-79
2021/05/24 11:27:16;;;;;;;2.13;0.80;;;;;;;27.80;28.41;97424.16;5087350;28;20048;-82
2021/05/24 11:29:49;;;;;;;1.40;0.70;;;;;;;27.19;27.65;97424.72;5067565;28;20367;-81
2021/05/24 11:32:20;;;;;;;0.80;0.60;;;;;;;27.64;28.05;97419.38;5087193;28;20044;-81
2021/05/24 11:34:46;;;;;;;2.45;0.73;;;;;;;27.49;28.75;97409.78;5068257;28;20116;-82
2021/05/24 11:37:13;;;;;;;5.15;0.90;;;;;;;27.23;28.68;97403.19;5068712;28;20108;-80
2021/05/24 11:39:49;;;;;;;1.75;0.70;;;;;;;27.60;28.03;97412.31;5069551;28;20079;-81
2021/05/24 11:42:32;;;;;;;1.27;0.70;;;;;;;26.86;28.75;97392.47;5071323;28;20044;-81
2021/05/24 11:45:08;;;;;;;1.83;0.80;;;;;;;26.36;28.85;97398.16;5060662;28;20048;-81
2021/05/24 11:47:40;;;;;;;1.73;0.85;;;;;;;26.05;30.81;97365.38;5059660;28;20048;-81
2021/05/24 11:50:09;;;;;;;2.45;0.90;;;;;;;26.89;29.17;97397.16;5070964;28;20048;-82